createdAt,value
2023-05-22T00:01:45.435Z,21.05
2023-05-22T00:04:21.591Z,21.03
2023-05-22T00:06:49.686Z,21.02
2023-05-22T00:09:17.566Z,21.02
2023-05-22T00:11:45.561Z,21.02
2023-05-22T00:14:13.688Z,21.03
2023-05-22T00:16:41.718Z,21.05
2023-05-22T00:19:13.701Z,21.02
2023-05-22T00:21:42.994Z,21.02
2023-05-22T00:24:11.064Z,20.99
2023-05-22T00:26:38.910Z,21.01
2023-05-22T00:29:06.736Z,20.99
2023-05-22T00:31:34.570Z,20.99
2023-05-22T00:34:02.427Z,20.99
2023-05-22T00:36:30.381Z,20.98
2023-05-22T00:38:59.468Z,20.99
2023-05-22T00:41:27.461Z,20.98
2023-05-22T00:43:55.165Z,20.98
2023-05-22T00:46:24.563Z,20.96
2023-05-22T00:48:52.905Z,20.91
2023-05-22T00:51:21.530Z,20.88
2023-05-22T00:53:49.806Z,20.85
2023-05-22T00:56:19.959Z,20.79
2023-05-22T00:58:47.724Z,20.80
2023-05-22T01:01:16.162Z,20.81
2023-05-22T01:03:45.078Z,20.81
2023-05-22T01:06:14.665Z,20.78
2023-05-22T01:08:43.488Z,20.79
2023-05-22T01:11:14.673Z,20.77
2023-05-22T01:13:47.967Z,20.75
2023-05-22T01:16:25.613Z,20.74
2023-05-22T01:19:01.166Z,20.75
2023-05-22T01:21:35.609Z,20.75
2023-05-22T01:24:37.883Z,20.72
2023-05-22T01:27:35.220Z,20.73
2023-05-22T01:30:18.535Z,20.73
2023-05-22T01:32:48.690Z,20.74
2023-05-22T01:35:18.744Z,20.73
2023-05-22T01:37:46.844Z,20.74
2023-05-22T01:40:14.909Z,20.73
2023-05-22T01:42:42.848Z,20.75
2023-05-22T01:45:12.269Z,20.76
2023-05-22T01:47:40.116Z,20.74
2023-05-22T01:50:10.246Z,20.69
2023-05-22T01:52:42.171Z,20.58
2023-05-22T01:55:14.472Z,20.53
2023-05-22T01:57:47.804Z,20.50
2023-05-22T02:00:16.584Z,20.53
2023-05-22T02:02:47.555Z,20.53
2023-05-22T02:05:18.861Z,20.57
2023-05-22T02:07:47.278Z,20.58
2023-05-22T02:10:15.778Z,20.58
2023-05-22T02:12:43.500Z,20.52
2023-05-22T02:15:11.672Z,20.54
2023-05-22T02:17:41.475Z,20.53
2023-05-22T02:20:14.474Z,20.49
2023-05-22T02:22:45.098Z,20.46
2023-05-22T02:25:14.496Z,20.48
2023-05-22T02:27:43.102Z,20.48
2023-05-22T02:30:11.832Z,20.45
2023-05-22T02:32:40.160Z,20.46
2023-05-22T02:35:08.895Z,20.46
2023-05-22T02:37:36.822Z,20.46
2023-05-22T02:40:07.275Z,20.47
2023-05-22T02:42:35.523Z,20.48
2023-05-22T02:45:03.667Z,20.47
2023-05-22T02:47:31.419Z,20.45
2023-05-22T02:49:59.240Z,20.45
2023-05-22T02:52:28.376Z,20.49
2023-05-22T02:54:56.187Z,20.47
2023-05-22T02:57:25.332Z,20.47
2023-05-22T02:59:54.166Z,20.47
2023-05-22T03:02:21.938Z,20.46
2023-05-22T03:04:49.627Z,20.48
2023-05-22T03:07:17.371Z,20.48
2023-05-22T03:09:45.102Z,20.46
2023-05-22T03:12:12.851Z,20.48
2023-05-22T03:14:42.040Z,20.41
2023-05-22T03:17:09.734Z,20.45
2023-05-22T03:19:37.615Z,20.43
2023-05-22T03:22:06.615Z,20.43
2023-05-22T03:24:34.403Z,20.42
2023-05-22T03:27:02.118Z,20.43
2023-05-22T03:29:29.862Z,20.41
2023-05-22T03:31:59.969Z,20.40
2023-05-22T03:34:30.005Z,20.41
2023-05-22T03:36:58.063Z,20.41
2023-05-22T03:39:25.860Z,20.40
2023-05-22T03:41:53.586Z,20.39
2023-05-22T03:44:21.586Z,20.38
2023-05-22T03:46:49.263Z,20.35
2023-05-22T03:49:18.408Z,20.31
2023-05-22T03:51:46.196Z,20.28
2023-05-22T03:54:13.945Z,20.25
2023-05-22T03:56:41.682Z,20.24
2023-05-22T03:59:09.611Z,20.23
2023-05-22T04:01:39.349Z,20.22
2023-05-22T04:04:07.152Z,20.20
2023-05-22T04:06:43.000Z,20.21
2023-05-22T04:09:11.922Z,20.17
2023-05-22T04:11:42.143Z,20.14
2023-05-22T04:14:10.346Z,20.08
2023-05-22T04:16:38.187Z,20.10
2023-05-22T04:19:05.951Z,20.09
2023-05-22T04:21:34.443Z,20.06
2023-05-22T04:24:07.458Z,20.07
2023-05-22T04:26:36.174Z,20.05
2023-05-22T04:29:04.017Z,20.05
2023-05-22T04:31:32.558Z,20.04
2023-05-22T04:34:00.445Z,20.03
2023-05-22T04:36:29.085Z,20.04
2023-05-22T04:38:56.901Z,20.03
2023-05-22T04:41:26.673Z,20.05
2023-05-22T04:43:54.775Z,20.06
2023-05-22T04:46:22.704Z,20.08
2023-05-22T04:48:51.054Z,20.09
2023-05-22T04:51:18.929Z,20.08
2023-05-22T04:53:49.336Z,20.07
2023-05-22T04:56:27.978Z,20.05
2023-05-22T04:59:05.436Z,20.05
2023-05-22T05:01:35.100Z,20.03
2023-05-22T05:04:03.698Z,20.02
2023-05-22T05:06:31.660Z,20.03
2023-05-22T05:08:59.688Z,20.04
2023-05-22T05:11:27.423Z,20.05
2023-05-22T05:13:55.094Z,20.03
2023-05-22T05:16:25.213Z,20.07
2023-05-22T05:18:53.469Z,20.10
2023-05-22T05:21:21.446Z,20.13
2023-05-22T05:23:49.191Z,20.09
2023-05-22T05:26:16.947Z,20.06
2023-05-22T05:28:44.680Z,20.07
2023-05-22T05:31:12.599Z,20.09
2023-05-22T05:33:41.812Z,20.12
2023-05-22T05:36:10.059Z,20.12
2023-05-22T05:38:37.992Z,20.11
2023-05-22T05:41:06.025Z,20.02
2023-05-22T05:43:33.849Z,20.09
2023-05-22T05:46:01.830Z,20.09
2023-05-22T05:48:29.606Z,20.06
2023-05-22T05:50:58.743Z,20.08
2023-05-22T05:53:26.500Z,20.07
2023-05-22T05:55:54.293Z,20.03
2023-05-22T05:58:22.027Z,20.04
2023-05-22T06:00:49.835Z,20.07
2023-05-22T06:03:18.197Z,20.06
2023-05-22T06:05:47.010Z,20.04
2023-05-22T06:08:16.098Z,20.06
2023-05-22T06:10:43.800Z,20.11
2023-05-22T06:13:11.658Z,20.15
2023-05-22T06:15:39.452Z,20.21
2023-05-22T06:18:07.475Z,20.25
2023-05-22T06:20:35.301Z,20.26
2023-05-22T06:23:03.066Z,20.28
2023-05-22T06:25:32.227Z,20.29
2023-05-22T06:28:00.836Z,20.34
2023-05-22T06:30:39.459Z,20.36
2023-05-22T06:33:11.574Z,20.39
2023-05-22T06:35:39.522Z,20.41
2023-05-22T06:38:07.255Z,20.43
2023-05-22T06:40:36.443Z,20.44
2023-05-22T06:43:04.194Z,20.49
2023-05-22T06:45:31.959Z,20.49
2023-05-22T06:47:59.862Z,20.50
2023-05-22T06:50:27.660Z,20.51
2023-05-22T06:52:55.454Z,20.56
2023-05-22T06:55:23.633Z,20.59
2023-05-22T06:57:52.864Z,20.60
2023-05-22T07:00:21.886Z,20.63
2023-05-22T07:02:49.925Z,20.68
2023-05-22T07:05:18.206Z,20.71
2023-05-22T07:07:46.378Z,20.74
2023-05-22T07:10:14.670Z,20.79
2023-05-22T07:12:42.452Z,20.85
2023-05-22T07:15:14.457Z,20.88
2023-05-22T07:17:43.291Z,20.90
2023-05-22T07:20:12.029Z,20.97
2023-05-22T07:24:44.728Z,21.02
2023-05-22T07:27:12.465Z,21.07
2023-05-22T07:29:40.223Z,21.12
2023-05-22T07:32:08.903Z,21.14
2023-05-22T07:34:37.326Z,21.17
2023-05-22T07:37:08.352Z,21.20
2023-05-22T07:39:36.361Z,21.22
2023-05-22T07:42:06.164Z,21.25
2023-05-22T07:44:34.318Z,21.23
2023-05-22T07:47:02.116Z,21.27
2023-05-22T07:49:29.836Z,21.30
2023-05-22T07:51:57.542Z,21.31
2023-05-22T07:54:25.255Z,21.32
2023-05-22T07:56:53.337Z,21.32
2023-05-22T07:59:23.792Z,21.35
2023-05-22T08:03:41.690Z,21.35
2023-05-22T08:06:10.052Z,21.35
2023-05-22T08:08:37.851Z,21.34
2023-05-22T08:11:06.129Z,21.38
2023-05-22T08:13:34.280Z,21.44
2023-05-22T08:16:02.202Z,21.49
2023-05-22T08:18:30.317Z,21.52
2023-05-22T08:21:00.550Z,21.59
2023-05-22T08:23:28.392Z,21.58
2023-05-22T08:25:56.160Z,21.67
2023-05-22T08:28:23.927Z,21.66
2023-05-22T08:30:51.885Z,21.67
2023-05-22T08:33:20.137Z,21.69
2023-05-22T08:35:47.998Z,21.68
2023-05-22T08:38:17.597Z,21.70
2023-05-22T08:40:49.412Z,21.78
2023-05-22T08:43:17.127Z,21.92
2023-05-22T08:45:44.934Z,21.99
2023-05-22T08:48:14.545Z,22.04
2023-05-22T08:50:43.228Z,22.06
2023-05-22T08:53:14.845Z,22.09
2023-05-22T08:55:43.966Z,22.10
2023-05-22T08:58:12.609Z,22.10
2023-05-22T09:00:41.033Z,22.07
2023-05-22T09:03:10.257Z,22.07
2023-05-22T09:05:39.318Z,22.08
2023-05-22T09:08:19.157Z,22.13
2023-05-22T09:12:15.482Z,22.19
2023-05-22T09:14:43.819Z,22.22
2023-05-22T09:17:12.799Z,22.29
2023-05-22T09:19:44.825Z,22.30
2023-05-22T09:22:12.608Z,22.35
2023-05-22T09:24:42.089Z,22.38
2023-05-22T09:27:10.701Z,22.43
2023-05-22T09:29:50.325Z,22.46
2023-05-22T09:32:18.607Z,22.48
2023-05-22T09:34:47.373Z,22.51
2023-05-22T09:37:15.207Z,22.53
2023-05-22T09:39:45.075Z,22.60
2023-05-22T09:42:15.009Z,22.66
2023-05-22T09:44:44.182Z,22.74
2023-05-22T09:47:13.342Z,22.80
2023-05-22T09:49:43.114Z,22.87
2023-05-22T09:52:12.562Z,22.90
2023-05-22T09:54:44.755Z,22.96
2023-05-22T09:57:15.124Z,23.00
2023-05-22T09:59:43.820Z,23.07
2023-05-22T10:02:13.370Z,23.10
2023-05-22T10:04:42.549Z,23.14
2023-05-22T10:07:12.041Z,23.18
2023-05-22T10:09:40.755Z,23.18
2023-05-22T10:12:10.362Z,23.21
2023-05-22T10:14:38.093Z,23.27
2023-05-22T10:17:06.956Z,23.31
2023-05-22T10:19:40.348Z,23.35
2023-05-22T10:22:09.903Z,23.41
2023-05-22T10:24:38.354Z,23.45
2023-05-22T10:27:06.426Z,23.49
2023-05-22T10:29:37.571Z,23.47
2023-05-22T10:32:08.992Z,23.49
2023-05-22T10:34:43.603Z,23.46
2023-05-22T10:37:22.472Z,23.51
2023-05-22T10:40:00.745Z,23.49
2023-05-22T10:42:30.945Z,23.50
2023-05-22T10:44:59.689Z,23.53
2023-05-22T10:47:27.484Z,23.56
2023-05-22T10:50:06.197Z,23.59
2023-05-22T10:52:33.929Z,23.59
2023-05-22T10:55:02.336Z,23.61
2023-05-22T10:57:34.440Z,23.62
2023-05-22T13:30:57.812Z,25.02
2023-05-22T13:33:36.816Z,25.16
2023-05-22T13:36:05.557Z,25.25
2023-05-22T13:38:33.624Z,25.27
2023-05-22T13:41:01.329Z,25.34
2023-05-22T13:43:29.026Z,25.42
2023-05-22T13:45:56.745Z,25.54
2023-05-22T13:48:24.463Z,25.56
2023-05-22T13:50:53.584Z,25.58
2023-05-22T13:53:21.286Z,25.60
2023-05-22T13:55:49.017Z,25.53
2023-05-22T13:58:16.768Z,25.55
2023-05-22T14:00:44.477Z,25.49
2023-05-22T14:03:17.412Z,25.67
2023-05-22T14:05:45.452Z,25.65
2023-05-22T14:08:14.558Z,25.68
2023-05-22T14:10:42.328Z,25.73
2023-05-22T14:13:10.034Z,25.81
2023-05-22T14:15:37.816Z,25.81
2023-05-22T14:18:05.737Z,25.78
2023-05-22T14:20:33.416Z,25.77
2023-05-22T14:23:01.121Z,25.71
2023-05-22T14:25:30.287Z,25.64
2023-05-22T14:27:58.113Z,25.55
2023-05-22T14:30:25.782Z,25.46
2023-05-22T14:35:31.389Z,25.37
2023-05-22T14:37:59.306Z,25.41
2023-05-22T14:40:27.033Z,25.25
2023-05-22T14:42:54.760Z,24.79
2023-05-22T14:46:02.471Z,24.26
2023-05-22T14:48:30.192Z,23.90
2023-05-22T14:50:58.240Z,23.65
2023-05-22T14:53:26.005Z,23.23
2023-05-22T14:55:53.731Z,21.12
2023-05-22T15:00:54.115Z,19.82
2023-05-22T15:03:23.519Z,19.55
2023-05-22T15:05:51.221Z,19.35
2023-05-22T15:08:20.398Z,19.32
2023-05-22T16:03:34.359Z,18.57
2023-05-22T16:06:02.271Z,18.74
2023-05-22T16:08:29.970Z,18.91
2023-05-22T16:11:00.706Z,19.04
2023-05-22T16:13:28.614Z,19.16
2023-05-22T16:15:56.558Z,19.24
2023-05-22T16:18:24.356Z,19.32
2023-05-22T16:20:53.445Z,19.40
2023-05-22T16:23:21.156Z,19.39
2023-05-22T16:25:50.828Z,19.56
2023-05-22T16:28:18.964Z,19.65
2023-05-22T16:30:46.703Z,19.74
2023-05-22T16:33:14.476Z,20.67
2023-05-22T16:35:46.868Z,21.03
2023-05-22T16:38:16.176Z,21.16
2023-05-22T16:40:43.930Z,21.22
2023-05-22T16:43:13.723Z,21.31
2023-05-22T16:45:46.467Z,21.41
2023-05-22T16:48:14.366Z,21.57
2023-05-22T16:50:42.462Z,21.72
2023-05-22T16:53:10.220Z,21.85
2023-05-22T16:55:39.594Z,21.82
2023-05-22T16:58:08.991Z,21.88
2023-05-22T17:00:37.557Z,21.87
2023-05-22T17:03:06.743Z,21.88
2023-05-22T17:05:34.825Z,21.91
2023-05-22T17:08:03.075Z,21.96
2023-05-22T17:10:30.851Z,21.97
2023-05-22T17:12:59.924Z,21.99
2023-05-22T17:15:27.682Z,22.01
2023-05-22T17:17:55.501Z,21.99
2023-05-22T17:20:23.369Z,22.00
2023-05-22T17:22:51.137Z,22.02
2023-05-22T17:25:19.003Z,22.05
2023-05-22T17:27:46.690Z,22.10
2023-05-22T17:30:15.959Z,22.09
2023-05-22T17:32:44.854Z,22.12
2023-05-22T17:35:12.633Z,22.11
2023-05-22T17:37:40.581Z,22.13
2023-05-22T17:40:09.943Z,22.13
2023-05-22T17:42:37.649Z,22.13
2023-05-22T17:45:06.021Z,22.19
2023-05-22T17:47:35.183Z,22.20
2023-05-22T17:50:03.023Z,22.19
2023-05-22T17:52:31.021Z,22.16
2023-05-22T17:54:58.741Z,22.15
2023-05-22T17:57:26.631Z,22.12
2023-05-22T17:59:54.323Z,22.19
2023-05-22T18:02:22.136Z,22.20
2023-05-22T18:04:51.272Z,22.24
2023-05-22T18:07:20.000Z,22.25
2023-05-22T18:09:48.181Z,22.25
2023-05-22T18:12:31.071Z,22.22
2023-05-22T18:14:59.809Z,22.24
2023-05-22T18:17:27.612Z,22.22
2023-05-22T18:19:56.692Z,22.20
2023-05-22T18:22:25.518Z,22.14
2023-05-22T18:24:53.226Z,22.11
2023-05-22T18:27:21.092Z,22.08
2023-05-22T18:29:50.459Z,22.04
2023-05-22T18:32:18.194Z,21.97
2023-05-22T18:34:46.521Z,21.89
2023-05-22T18:37:16.393Z,21.82
2023-05-22T18:39:44.103Z,21.80
2023-05-22T18:42:11.838Z,21.75
2023-05-22T18:44:39.573Z,21.68
2023-05-22T18:47:07.763Z,21.63
2023-05-22T18:49:35.516Z,21.59
2023-05-22T18:52:03.287Z,21.54
2023-05-22T18:54:32.388Z,21.48
2023-05-22T18:57:00.155Z,21.43
2023-05-22T18:59:27.932Z,21.39
2023-05-22T19:01:55.688Z,21.34
2023-05-22T19:04:23.679Z,21.24
2023-05-22T19:06:53.760Z,21.18
2023-05-22T19:09:22.094Z,21.14
2023-05-22T19:11:51.257Z,21.09
2023-05-22T19:14:19.103Z,21.06
2023-05-22T19:16:46.897Z,21.01
2023-05-22T19:19:14.840Z,20.99
2023-05-22T19:21:42.690Z,20.96
2023-05-22T19:24:10.542Z,20.91
2023-05-22T19:26:38.256Z,20.90
2023-05-22T19:29:07.426Z,20.88
2023-05-22T19:31:36.083Z,20.82
2023-05-22T19:34:03.761Z,20.75
2023-05-22T19:36:31.882Z,20.68
2023-05-22T19:38:59.781Z,20.63
2023-05-22T19:41:27.624Z,20.58
2023-05-22T19:43:55.384Z,20.57
2023-05-22T19:46:24.519Z,20.56
2023-05-22T19:48:52.461Z,20.53
2023-05-22T19:51:20.214Z,20.50
2023-05-22T19:53:47.948Z,20.48
2023-05-22T19:56:16.002Z,20.49
2023-05-22T19:58:43.679Z,20.52
2023-05-22T20:01:11.594Z,20.45
2023-05-22T20:03:41.090Z,20.43
2023-05-22T20:06:08.948Z,20.37
2023-05-22T20:08:37.453Z,20.34
2023-05-22T20:11:05.162Z,20.25
2023-05-22T20:13:32.947Z,20.19
2023-05-22T20:16:03.517Z,20.18
2023-05-22T20:18:31.726Z,20.12
2023-05-22T20:21:00.848Z,20.03
2023-05-22T20:23:29.812Z,20.05
2023-05-22T20:25:57.575Z,19.97
2023-05-22T20:28:26.398Z,20.00
2023-05-22T20:30:54.108Z,19.95
2023-05-22T20:33:21.887Z,19.92
2023-05-22T20:35:52.839Z,19.89
2023-05-22T20:38:22.424Z,19.80
2023-05-22T20:40:51.862Z,19.69
2023-05-22T20:43:20.021Z,19.64
2023-05-22T20:45:48.038Z,19.60
2023-05-22T20:48:16.587Z,19.56
2023-05-22T20:50:47.135Z,19.51
2023-05-22T20:53:14.983Z,19.50
2023-05-22T20:55:44.156Z,19.42
2023-05-22T20:58:11.892Z,19.35
2023-05-22T21:00:41.489Z,19.30
2023-05-22T21:03:09.430Z,19.25
2023-05-22T21:05:37.754Z,19.20
2023-05-22T21:08:05.584Z,19.17
2023-05-22T21:10:33.271Z,19.14
2023-05-22T21:13:02.395Z,19.08
2023-05-22T21:15:30.121Z,19.02
2023-05-22T21:17:57.846Z,18.97
2023-05-22T21:20:25.806Z,18.88
2023-05-22T21:22:53.507Z,18.84
2023-05-22T21:25:21.487Z,18.74
2023-05-22T21:27:49.407Z,18.74
2023-05-22T21:30:18.573Z,18.76
2023-05-22T21:32:46.310Z,18.73
2023-05-22T21:35:14.110Z,18.66
2023-05-22T21:37:41.865Z,18.64
2023-05-22T21:40:10.213Z,18.64
2023-05-22T21:42:46.521Z,18.61
2023-05-22T21:45:15.010Z,18.59
2023-05-22T21:47:44.393Z,18.58
2023-05-22T21:50:12.728Z,18.55
2023-05-22T21:52:40.586Z,18.53
2023-05-22T21:55:08.822Z,18.49
2023-05-22T21:57:37.901Z,18.39
2023-05-22T22:00:06.171Z,18.28
2023-05-22T22:02:34.025Z,18.17
2023-05-22T22:05:03.331Z,18.08
2023-05-22T22:07:31.126Z,18.01
2023-05-22T22:09:59.299Z,17.90
2023-05-22T22:12:27.069Z,17.87
2023-05-22T22:14:54.786Z,17.83
2023-05-22T22:17:23.419Z,17.76
2023-05-22T22:19:53.569Z,17.72
2023-05-22T22:22:22.836Z,17.65
2023-05-22T22:24:50.753Z,17.63
2023-05-22T22:27:19.663Z,17.61
2023-05-22T22:29:47.389Z,17.64
2023-05-22T22:32:15.207Z,17.61
2023-05-22T22:34:43.155Z,17.62
2023-05-22T22:37:11.166Z,17.61
2023-05-22T22:39:40.347Z,17.61
2023-05-22T22:42:08.706Z,17.59
2023-05-22T22:44:36.398Z,17.57
2023-05-22T22:47:04.628Z,17.52
2023-05-22T22:49:32.817Z,17.51
2023-05-22T22:52:00.847Z,17.47
2023-05-22T22:54:28.707Z,17.50
2023-05-22T22:56:58.006Z,17.51
2023-05-22T22:59:25.688Z,17.50
2023-05-22T23:01:53.663Z,17.48
2023-05-22T23:04:21.531Z,17.47
2023-05-22T23:06:49.388Z,17.43
2023-05-22T23:09:17.478Z,17.44
2023-05-22T23:11:45.272Z,17.44
2023-05-22T23:14:14.329Z,17.43
2023-05-22T23:16:42.053Z,17.38
2023-05-22T23:19:10.968Z,17.38
2023-05-22T23:21:38.852Z,17.39
2023-05-22T23:24:07.301Z,17.36
2023-05-22T23:26:35.301Z,17.35
2023-05-22T23:29:03.363Z,17.31
2023-05-22T23:31:32.536Z,17.33
2023-05-22T23:34:00.463Z,17.33
2023-05-22T23:36:28.311Z,17.35
2023-05-22T23:38:56.022Z,17.32
2023-05-22T23:41:24.437Z,17.33
2023-05-22T23:43:52.149Z,17.31
2023-05-22T23:46:21.283Z,17.32
2023-05-22T23:48:50.516Z,17.29
2023-05-22T23:51:18.741Z,17.30
2023-05-22T23:53:46.436Z,17.28
2023-05-22T23:56:14.221Z,17.29
2023-05-22T23:58:42.028Z,17.30
